aviador You're here:

KJEF Decoded Metar

JEFFERSON CITY in MO, USA
Report Time2018-06-23 12:53:00
UTC Time2018-06-23 13:47:15
Flight Rules vfr VFR
WindCalm
Visibility9999 m
Phenomena:N/A
Clouds:Few 035 Hf
Scattered 090 Hf
Scattered 120 Hf
Expected CloudBase > 1,200 ft AGL from Temp-Dew spread
CeilingNone
Temp21°C (ISA +7)
Dew Point18°C (83% RH)
QNH1009 hPa
Density Alt1,791 ft
Elevation551 ft
Report Wrong Elevation
Raw Report
KJEF 231253Z 00000KT 10SM FEW035 SCT090 SCT120 21/18 A2980 RMK AO2
SLP079 T02110178=

Extra information for KJEF:More info

Metar Taf Metar & Taf Last 4 Metars F.Rules Stats Wind Profile Meteogram Temp Stats Airport Information Weather charts Add Link Nearby VenuesMetar ALERT Operation Metar Decoded Social comments

AIRNAV info for KJEF